Lester B. Pearson International Airport
CYYZ : now visible

Airfield :











YOU CAN JOIN US ON...

 
LOGIN :

Register | Disclaimer

   EN    FR    IT 

 









Legend :    VFR   Marginal VFR   IFR   Intensive IFR   Very Intensive IFR
Visi :
Ceiling :
>= 8 km
>= 3000ft
5 to 8 km
1000 to 3000 ft
1500m to 5 km
500 to 1000 ft
800 to 1500m
200 to 500 ft
< 800m
< 200 ft
Symbols :   Thunderstorms  Fog  Heavy snow  Heavy precipitations  Wind > 20 kt







- Airport Elevation : 569 ft
- IATA code : YYZ


CYYZ - Lester B. Pearson International

CURRENT METAR :
  • 210900Z 28006KT 200V010 15SM FEW120 22/20 A2980 RMK AC1 AC TR SLP090 DENSITY ALT 1700FT

EXPIRED METARs :
  • 210800Z 27007KT 200V320 15SM SCT140 22/20 A2980 RMK AC3 SLP088 DENSITY ALT 1700FT
  • 210700Z 29009KT 15SM FEW150 23/20 A2980 RMK AC2 SLP091 DENSITY ALT 1800FT

TAF TAF CYYZ
Valid from the 21 at 09:00 until the 22 at 12:00 UTC


210838Z 2109/2212 30010KT P6SM FEW030 SCT160
BECMG 2205/2206 34005KT RMK NXT FCST BY 211200Z
CZYZ FIR / North America



MET'MAP, your aeronautical weather chart ! - Copyright ORBIFLY December 2007 - Disclaimer

ORBIFLY MET'MAP TEAM :

Programming & Development : Alexandra Zaïnal
Concept & Development : Baudouin d'Aumeries
Co-Development & Prog : Marc-Olivier Méhu
Technical & hardware support : Manuel Goepfert

Contact : metmap@orbifly.com




SOURCES & CREDITS :

   NOAA       Earth
Advisory